Awendaw, SC

10:29 AM EDT on October 30, 2014 (GMT -0400)
Planter's Pointe | Change Station
CLOSE
Current Station
Personal Weather Station
Location: Mount Pleasant, SC
Elevation: 20 ft
Nearby Weather Stations

Elev 20 ft 32.90 °N, 79.83 °W | Updated 26 seconds ago

Clear
Clear
64.4 °F
Feels Like 64.4 °F
N
3.0
Wind Variable Wind from West
Gusts 6.0 mph

Today
High -- | Low -- °F
--% Chance of Precip.
Yesterday
High -- | Low -- °F
Precip. -- in
7:34 AM 6:29 PM
Waxing Crescent, 44% visible
Pressure 30.00 in
Visibility 10.0 miles
Clouds Few 5000 ft
Dew Point 59 °F
Humidity 82%
Rainfall 0.00 in
Snow Depth Not available.
UV 2 out of 12
Pollen 2.30 out of 12
Air Quality Not available.
Flu Activity Not available.
METAR KCHS 301356Z 03009KT 10SM FEW050 18/11 A3000 RMK AO2 SLP159 T01830111

More Conditions Fewer Conditions

Pressure 30.00 in
Visibility 10.0 miles
Clouds Few 5000 ft
Dew Point 59 °F
Humidity 82%
Rainfall 0.00 in
Snow Depth Not available.
UV 2 out of 12
Pollen 2.30 out of 12
Air Quality Not available.
Flu Activity Not available.
METAR KCHS 301356Z 03009KT 10SM FEW050 18/11 A3000 RMK AO2 SLP159 T01830111

More Conditions Fewer Conditions

10-Day Weather Forecast

Almanac

Astronomy

Oct. 30, 2014 Rise Set
Actual Time
Civil Twilight
Nautical Twilight
Astronomical Twilight
Moon
Length of Visible Light
Length of Day
Tomorrow will be .
, % of the Moon is Illuminated

Today's Extremes

State Highs State Lows

Community

WunderPhotos

Upload Photos

1,766,371 photos uploaded!

WunderBlogs® & News

Nearby

Air Quality

  Air Quality AQ Index Pollutant
Not available.

Snow Depth

Station Depth Elevation

Earthquake Activity

City Distance Mag. Time & Date
Minimum magnitude displayed is 2.5.

Coastal Water Temperatures

Place Temperature

Nearby Weather Stations